createdAt,value
2019-01-28T00:00:43.174Z,4.98
2019-01-28T00:03:10.815Z,4.89
2019-01-28T00:05:38.723Z,4.88
2019-01-28T00:08:06.337Z,5.02
2019-01-28T00:10:33.804Z,4.89
2019-01-28T00:13:01.408Z,4.84
2019-01-28T00:15:28.537Z,4.95
2019-01-28T00:17:55.774Z,4.94
2019-01-28T00:20:23.090Z,5.05
2019-01-28T00:22:50.062Z,5.09
2019-01-28T00:25:17.599Z,5.02
2019-01-28T00:27:45.301Z,4.95
2019-01-28T00:30:12.436Z,5.08
2019-01-28T00:32:39.787Z,4.89
2019-01-28T00:35:08.688Z,5.05
2019-01-28T00:37:36.155Z,4.92
2019-01-28T00:40:06.491Z,4.88
2019-01-28T00:42:33.887Z,4.91
2019-01-28T00:45:00.953Z,4.84
2019-01-28T00:47:28.292Z,4.93
2019-01-28T00:49:55.377Z,4.91
2019-01-28T00:52:22.792Z,5.06
2019-01-28T00:54:50.215Z,5.01
2019-01-28T00:57:17.814Z,5.07
2019-01-28T00:59:45.153Z,5.12
2019-01-28T01:02:13.386Z,5.09
2019-01-28T01:04:41.242Z,5.18
2019-01-28T01:07:08.914Z,5.01
2019-01-28T01:09:36.320Z,4.93
2019-01-28T01:12:04.702Z,5.07
2019-01-28T01:14:32.115Z,5.03
2019-01-28T01:16:59.005Z,5.01
2019-01-28T01:19:26.151Z,4.95
2019-01-28T01:21:53.261Z,4.94
2019-01-28T01:24:22.158Z,4.89
2019-01-28T01:26:49.521Z,4.95
2019-01-28T01:29:16.963Z,4.92
2019-01-28T01:31:44.251Z,5.02
2019-01-28T01:34:11.763Z,5.06
2019-01-28T01:36:39.240Z,5.02
2019-01-28T01:39:07.286Z,5.13
2019-01-28T01:41:34.824Z,5.13
2019-01-28T01:44:02.616Z,5.18
2019-01-28T01:46:30.176Z,5.06
2019-01-28T01:48:57.222Z,5.12
2019-01-28T01:51:24.842Z,5.03
2019-01-28T01:53:52.140Z,5.13
2019-01-28T01:56:19.542Z,5.11
2019-01-28T01:58:47.217Z,5.04
2019-01-28T02:01:14.468Z,5.01
2019-01-28T02:03:41.691Z,4.98
2019-01-28T02:06:08.897Z,5.17
2019-01-28T02:08:36.097Z,5.10
2019-01-28T02:11:03.465Z,5.02
2019-01-28T02:13:30.156Z,5.02
2019-01-28T02:15:57.524Z,4.98
2019-01-28T02:18:24.736Z,5.03
2019-01-28T02:20:51.998Z,5.12
2019-01-28T02:23:19.166Z,5.07
2019-01-28T02:25:46.507Z,4.96
2019-01-28T02:28:13.529Z,5.01
2019-01-28T02:30:40.731Z,5.07
2019-01-28T02:33:07.886Z,5.13
2019-01-28T02:35:35.231Z,5.06
2019-01-28T02:38:04.175Z,5.06
2019-01-28T02:40:31.533Z,5.01
2019-01-28T02:42:58.933Z,5.08
2019-01-28T02:45:28.259Z,5.11
2019-01-28T02:47:56.066Z,5.01
2019-01-28T02:50:26.591Z,5.01
2019-01-28T02:52:53.740Z,5.04
2019-01-28T02:55:39.875Z,5.06
2019-01-28T02:58:13.400Z,4.95
2019-01-28T03:00:40.524Z,4.75
2019-01-28T03:03:07.397Z,4.66
2019-01-28T03:05:34.283Z,4.80
2019-01-28T03:08:01.535Z,4.81
2019-01-28T03:10:28.577Z,4.81
2019-01-28T03:12:55.509Z,4.82
2019-01-28T03:15:22.500Z,4.81
2019-01-28T03:17:49.425Z,4.67
2019-01-28T03:20:17.859Z,4.82
2019-01-28T03:22:45.090Z,4.79
2019-01-28T03:25:14.465Z,4.76
2019-01-28T03:27:41.665Z,4.86
2019-01-28T03:30:11.775Z,4.67
2019-01-28T03:32:38.687Z,4.72
2019-01-28T03:35:08.010Z,4.60
2019-01-28T03:37:35.728Z,4.75
2019-01-28T03:40:06.459Z,4.66
2019-01-28T03:42:33.356Z,4.64
2019-01-28T03:45:00.562Z,4.63
2019-01-28T03:47:28.319Z,4.50
2019-01-28T03:49:56.040Z,4.48
2019-01-28T03:52:23.747Z,4.57
2019-01-28T03:54:50.965Z,4.51
2019-01-28T03:57:18.314Z,4.44
2019-01-28T03:59:45.451Z,4.45
2019-01-28T04:02:12.873Z,4.60
2019-01-28T04:04:40.228Z,4.46
2019-01-28T04:07:07.993Z,4.41
2019-01-28T04:09:35.565Z,4.28
2019-01-28T04:12:02.756Z,4.30
2019-01-28T04:14:29.893Z,4.32
2019-01-28T04:16:56.890Z,4.18
2019-01-28T04:19:24.084Z,4.09
2019-01-28T04:21:51.020Z,4.00
2019-01-28T04:24:17.940Z,4.02
2019-01-28T04:26:44.815Z,3.95
2019-01-28T04:29:12.120Z,3.63
2019-01-28T04:31:39.391Z,3.69
2019-01-28T04:34:06.610Z,3.64
2019-01-28T04:36:33.588Z,3.55
2019-01-28T04:39:00.659Z,3.70
2019-01-28T04:41:28.088Z,3.60
2019-01-28T04:43:55.247Z,3.54
2019-01-28T04:46:21.898Z,3.60
2019-01-28T04:48:48.612Z,3.85
2019-01-28T04:51:15.565Z,3.64
2019-01-28T04:53:42.150Z,3.61
2019-01-28T04:56:09.172Z,3.70
2019-01-28T04:58:36.159Z,3.71
2019-01-28T05:01:04.161Z,3.68
2019-01-28T05:03:31.726Z,3.77
2019-01-28T05:05:58.834Z,3.78
2019-01-28T05:08:25.634Z,3.68
2019-01-28T05:10:52.562Z,3.82
2019-01-28T05:13:19.665Z,3.74
2019-01-28T05:15:47.230Z,3.69
2019-01-28T05:18:14.388Z,3.82
2019-01-28T05:20:42.921Z,3.82
2019-01-28T05:23:10.380Z,3.75
2019-01-28T05:25:37.631Z,3.79
2019-01-28T05:28:04.837Z,3.75
2019-01-28T05:30:32.096Z,3.85
2019-01-28T05:32:59.376Z,3.80
2019-01-28T05:35:26.550Z,3.82
2019-01-28T05:37:53.501Z,4.01
2019-01-28T05:40:22.467Z,4.01
2019-01-28T05:42:49.684Z,4.03
2019-01-28T05:45:18.524Z,3.90
2019-01-28T05:47:45.570Z,3.91
2019-01-28T05:50:14.679Z,3.91
2019-01-28T05:52:42.416Z,3.93
2019-01-28T05:55:17.310Z,4.02
2019-01-28T05:57:45.029Z,4.04
2019-01-28T06:00:18.925Z,4.05
2019-01-28T06:02:45.795Z,4.09
2019-01-28T06:05:14.086Z,4.16
2019-01-28T06:07:41.317Z,4.10
2019-01-28T06:10:11.718Z,4.10
2019-01-28T06:12:38.570Z,4.14
2019-01-28T06:15:11.594Z,4.13
2019-01-28T06:17:39.262Z,4.16
2019-01-28T06:20:13.336Z,4.12
2019-01-28T06:22:40.755Z,4.07
2019-01-28T06:25:08.587Z,4.15
2019-01-28T06:27:36.222Z,4.09
2019-01-28T06:30:06.863Z,4.04
2019-01-28T06:32:34.557Z,4.05
2019-01-28T06:35:02.418Z,4.07
2019-01-28T06:37:29.869Z,4.02
2019-01-28T06:39:57.168Z,4.00
2019-01-28T06:42:24.113Z,3.89
2019-01-28T06:44:51.111Z,3.94
2019-01-28T06:47:18.023Z,3.85
2019-01-28T06:49:44.908Z,3.97
2019-01-28T06:52:12.127Z,3.93
2019-01-28T06:54:39.147Z,3.75
2019-01-28T06:57:06.248Z,3.68
2019-01-28T06:59:33.000Z,3.83
2019-01-28T07:01:59.507Z,3.87
2019-01-28T07:04:26.881Z,3.76
2019-01-28T07:06:55.489Z,3.77
2019-01-28T07:09:22.421Z,3.82
2019-01-28T07:11:49.381Z,3.73
2019-01-28T07:14:17.420Z,3.74
2019-01-28T07:16:44.323Z,3.83
2019-01-28T07:19:11.097Z,3.85
2019-01-28T07:21:37.800Z,3.72
2019-01-28T07:24:04.871Z,3.61
2019-01-28T07:26:31.450Z,3.62
2019-01-28T07:28:58.088Z,3.62
2019-01-28T07:31:25.300Z,3.57
2019-01-28T07:33:52.148Z,3.44
2019-01-28T07:36:19.608Z,3.36
2019-01-28T07:38:47.453Z,3.30
2019-01-28T07:41:15.060Z,3.45
2019-01-28T07:43:42.058Z,3.41
2019-01-28T07:46:09.919Z,3.40
2019-01-28T07:48:37.005Z,3.46
2019-01-28T07:51:03.989Z,3.40
2019-01-28T07:53:31.200Z,3.40
2019-01-28T07:55:58.684Z,3.27
2019-01-28T07:58:26.598Z,3.30
2019-01-28T08:00:53.788Z,3.41
2019-01-28T08:03:20.759Z,3.30
2019-01-28T08:05:47.703Z,3.32
2019-01-28T08:08:15.146Z,3.35
2019-01-28T08:10:42.502Z,3.29
2019-01-28T08:13:11.585Z,3.44
2019-01-28T08:15:38.531Z,3.50
2019-01-28T08:18:10.545Z,3.46
2019-01-28T08:20:34.919Z,3.47
2019-01-28T08:23:02.166Z,3.46
2019-01-28T08:25:29.922Z,3.56
2019-01-28T08:31:32.311Z,3.64
2019-01-28T08:33:59.503Z,3.70
2019-01-28T08:36:26.122Z,3.76
2019-01-28T08:38:52.632Z,3.79
2019-01-28T08:41:20.101Z,3.85
2019-01-28T08:43:47.522Z,3.92
2019-01-28T08:46:14.909Z,3.97
2019-01-28T08:48:41.938Z,4.00
2019-01-28T08:51:08.932Z,4.03
2019-01-28T08:53:35.507Z,4.10
2019-01-28T08:56:02.350Z,4.14
2019-01-28T08:58:29.327Z,4.17
2019-01-28T09:00:56.748Z,4.20
2019-01-28T09:03:23.545Z,4.23
2019-01-28T09:05:50.453Z,4.21
2019-01-28T09:08:17.333Z,4.09
2019-01-28T09:10:44.316Z,4.18
2019-01-28T09:13:11.100Z,4.16
2019-01-28T09:15:37.919Z,4.17
2019-01-28T09:18:05.682Z,4.13
2019-01-28T09:20:32.637Z,4.12
2019-01-28T09:22:59.195Z,4.15
2019-01-28T09:25:26.433Z,4.23
2019-01-28T09:27:53.161Z,4.37
2019-01-28T09:30:25.242Z,4.43
2019-01-28T09:32:52.011Z,4.36
2019-01-28T09:35:18.726Z,4.27
2019-01-28T09:37:45.573Z,4.27
2019-01-28T09:40:20.820Z,4.35
2019-01-28T09:42:48.093Z,4.36
2019-01-28T09:45:17.995Z,4.20
2019-01-28T09:47:44.566Z,4.37
2019-01-28T09:50:12.606Z,4.36
2019-01-28T09:52:39.774Z,4.45
2019-01-28T09:55:09.779Z,4.57
2019-01-28T09:57:36.692Z,4.51
2019-01-28T10:00:08.074Z,4.90
2019-01-28T10:02:34.992Z,4.60
2019-01-28T10:05:02.142Z,4.60
2019-01-28T10:07:28.902Z,4.54
2019-01-28T10:09:55.935Z,4.62
2019-01-28T10:12:22.682Z,4.57
2019-01-28T10:14:49.387Z,4.58
2019-01-28T10:17:16.041Z,4.62
2019-01-28T10:19:42.919Z,4.73
2019-01-28T10:22:09.802Z,4.66
2019-01-28T10:24:36.558Z,4.60
2019-01-28T10:27:03.303Z,4.72
2019-01-28T10:29:29.881Z,4.76
2019-01-28T10:31:56.515Z,4.53
2019-01-28T10:34:23.157Z,4.63
2019-01-28T10:36:50.386Z,4.64
2019-01-28T10:39:17.346Z,4.67
2019-01-28T10:41:45.913Z,4.57
2019-01-28T10:44:12.493Z,4.59
2019-01-28T10:46:39.106Z,4.71
2019-01-28T10:49:05.820Z,4.66
2019-01-28T10:51:32.406Z,4.57
2019-01-28T10:53:58.840Z,4.42
2019-01-28T10:56:25.400Z,4.51
2019-01-28T10:58:51.775Z,4.43
2019-01-28T11:01:18.332Z,4.52
2019-01-28T11:07:08.421Z,4.57
2019-01-28T11:09:35.150Z,4.52
2019-01-28T11:12:01.752Z,4.57
2019-01-28T11:14:28.885Z,4.65
2019-01-28T11:16:56.023Z,4.62
2019-01-28T11:19:23.097Z,4.67
2019-01-28T11:21:50.053Z,4.79
2019-01-28T11:24:16.881Z,4.79
2019-01-28T11:26:45.232Z,4.76
2019-01-28T11:29:12.558Z,4.78
2019-01-28T11:31:39.639Z,4.86
2019-01-28T11:34:06.412Z,4.83
2019-01-28T11:36:33.006Z,4.92
2019-01-28T11:38:59.519Z,4.79
2019-01-28T11:41:39.092Z,4.93
2019-01-28T11:44:05.680Z,4.98
2019-01-28T11:46:32.523Z,4.98
2019-01-28T11:49:05.732Z,5.06
2019-01-28T11:51:28.473Z,5.02
2019-01-28T11:53:55.142Z,4.88
2019-01-28T11:56:21.486Z,5.03
2019-01-28T11:58:48.107Z,5.03
2019-01-28T12:01:17.061Z,4.96
2019-01-28T12:03:43.829Z,4.97
2019-01-28T12:06:10.837Z,5.07
2019-01-28T12:08:37.554Z,4.95
2019-01-28T12:11:04.288Z,4.94
2019-01-28T12:13:30.602Z,4.96
2019-01-28T12:15:57.200Z,4.80
2019-01-28T12:18:23.790Z,4.73
2019-01-28T12:20:53.610Z,4.74
2019-01-28T12:23:19.254Z,4.91
2019-01-28T12:25:45.906Z,4.95
2019-01-28T12:28:12.891Z,4.93
2019-01-28T12:30:40.001Z,4.60
2019-01-28T12:33:06.436Z,4.73
2019-01-28T12:35:33.260Z,4.74
2019-01-28T12:37:59.939Z,4.69
2019-01-28T12:40:26.838Z,4.87
2019-01-28T12:42:53.387Z,4.77
2019-01-28T12:45:27.218Z,4.71
2019-01-28T12:47:53.811Z,4.86
2019-01-28T12:50:22.352Z,4.83
2019-01-28T12:52:49.315Z,4.86
2019-01-28T12:55:17.713Z,4.84
2019-01-28T12:57:44.756Z,4.86
2019-01-28T13:00:25.870Z,4.83
2019-01-28T13:02:53.837Z,4.65
2019-01-28T13:05:24.226Z,4.71
2019-01-28T13:07:50.537Z,4.80
2019-01-28T13:10:21.875Z,4.82
2019-01-28T13:12:48.366Z,4.87
2019-01-28T13:15:20.929Z,4.83
2019-01-28T13:17:47.600Z,4.80
2019-01-28T13:20:14.281Z,4.80
2019-01-28T13:22:44.929Z,4.78
2019-01-28T13:25:13.075Z,4.80
2019-01-28T13:27:39.982Z,4.83
2019-01-28T13:30:10.313Z,4.91
2019-01-28T13:32:36.847Z,4.91
2019-01-28T13:35:04.443Z,5.02
2019-01-28T13:37:32.515Z,5.07
2019-01-28T13:39:59.129Z,5.09
2019-01-28T13:42:25.750Z,5.02
2019-01-28T13:44:52.447Z,5.06
2019-01-28T13:47:18.957Z,4.96
2019-01-28T13:49:45.498Z,5.13
2019-01-28T13:52:12.112Z,5.24
2019-01-28T13:54:38.466Z,5.32
2019-01-28T13:57:04.715Z,5.15
2019-01-28T13:59:31.113Z,4.92
2019-01-28T14:01:57.871Z,4.94
2019-01-28T14:04:24.282Z,5.09
2019-01-28T14:06:50.922Z,5.02
2019-01-28T14:09:17.227Z,5.01
2019-01-28T14:11:43.494Z,4.95
2019-01-28T14:14:10.318Z,4.98
2019-01-28T14:16:36.866Z,4.95
2019-01-28T14:19:03.496Z,4.82
2019-01-28T14:21:29.988Z,4.88
2019-01-28T14:23:56.971Z,4.93
2019-01-28T14:26:23.527Z,5.07
2019-01-28T14:28:49.980Z,5.18
2019-01-28T14:31:16.560Z,5.09
2019-01-28T14:33:43.196Z,4.91
2019-01-28T14:36:10.057Z,4.84
2019-01-28T14:38:36.752Z,4.97
2019-01-28T14:41:03.168Z,4.91
2019-01-28T14:43:29.574Z,5.00
2019-01-28T14:45:56.202Z,4.98
2019-01-28T14:48:22.581Z,5.01
2019-01-28T14:50:48.983Z,4.97
2019-01-28T14:53:15.309Z,4.91
2019-01-28T14:55:41.698Z,4.88
2019-01-28T14:58:08.405Z,4.81
2019-01-28T15:00:40.635Z,4.83
2019-01-28T15:03:07.125Z,4.88
2019-01-28T15:05:34.138Z,4.71
2019-01-28T15:08:00.517Z,4.82
2019-01-28T15:10:27.054Z,4.76
2019-01-28T15:12:53.535Z,4.72
2019-01-28T15:15:31.661Z,4.62
2019-01-28T15:17:58.716Z,4.65
2019-01-28T15:20:25.355Z,4.56
2019-01-28T15:22:51.861Z,4.37
2019-01-28T15:25:18.204Z,4.49
2019-01-28T15:27:44.470Z,4.30
2019-01-28T15:30:22.936Z,4.30
2019-01-28T15:32:49.701Z,4.44
2019-01-28T15:35:21.978Z,4.45
2019-01-28T15:37:48.797Z,4.59
2019-01-28T15:40:21.703Z,4.75
2019-01-28T15:42:48.443Z,4.92
2019-01-28T15:45:20.942Z,4.90
2019-01-28T15:47:47.452Z,4.97
2019-01-28T15:50:19.427Z,4.96
2019-01-28T15:52:46.115Z,4.98
2019-01-28T15:55:16.045Z,4.92
2019-01-28T15:57:42.508Z,4.96
2019-01-28T16:00:12.791Z,4.97
2019-01-28T16:02:39.168Z,4.86
2019-01-28T16:05:08.517Z,4.90
2019-01-28T16:07:35.154Z,4.97
2019-01-28T16:10:01.625Z,5.05
2019-01-28T16:12:27.938Z,4.91
2019-01-28T16:14:55.969Z,4.82
2019-01-28T16:17:22.512Z,4.94
2019-01-28T16:19:49.249Z,5.10
2019-01-28T16:22:15.822Z,4.81
2019-01-28T16:24:42.652Z,4.78
2019-01-28T16:27:09.142Z,4.87
2019-01-28T16:29:35.577Z,4.65
2019-01-28T16:32:02.401Z,4.80
2019-01-28T16:34:29.011Z,4.86
2019-01-28T16:36:55.867Z,4.84
2019-01-28T16:39:22.338Z,4.96
2019-01-28T16:41:48.829Z,4.89
2019-01-28T16:44:15.299Z,4.92
2019-01-28T16:46:41.752Z,4.79
2019-01-28T16:49:08.236Z,4.73
2019-01-28T16:51:34.696Z,4.77
2019-01-28T16:54:01.041Z,4.68
2019-01-28T16:56:28.691Z,4.67
2019-01-28T16:58:55.765Z,4.69
2019-01-28T17:01:22.246Z,4.90
2019-01-28T17:03:49.308Z,5.15
2019-01-28T17:06:15.870Z,5.02
2019-01-28T17:08:42.418Z,4.97
2019-01-28T17:11:09.003Z,5.41
2019-01-28T17:13:35.695Z,5.27
2019-01-28T17:16:03.465Z,5.23
2019-01-28T17:18:30.132Z,5.57
2019-01-28T17:27:40.914Z,4.93
2019-01-28T17:33:45.818Z,4.57
2019-01-28T17:36:13.868Z,4.81
2019-01-28T17:42:04.198Z,4.80
2019-01-28T17:44:32.113Z,4.73
2019-01-28T17:46:58.785Z,4.61
2019-01-28T17:49:26.220Z,4.46
2019-01-28T17:51:52.658Z,4.53
2019-01-28T17:54:19.680Z,4.63
2019-01-28T17:56:46.950Z,4.56
2019-01-28T17:59:13.446Z,4.61
2019-01-28T18:01:40.152Z,4.47
2019-01-28T18:07:17.778Z,4.65
2019-01-28T18:09:44.494Z,4.94
2019-01-28T18:15:47.123Z,5.31
2019-01-28T18:18:13.676Z,5.57
2019-01-28T18:20:40.516Z,5.33
2019-01-28T18:23:09.801Z,5.40
2019-01-28T18:25:36.924Z,5.39
2019-01-28T18:28:04.805Z,5.61
2019-01-28T18:30:35.200Z,5.46
2019-01-28T18:33:01.708Z,5.30
2019-01-28T18:35:28.290Z,5.23
2019-01-28T18:37:54.997Z,5.23
2019-01-28T18:40:21.632Z,5.21
2019-01-28T18:42:48.499Z,5.09
2019-01-28T18:45:18.373Z,5.06
2019-01-28T18:47:45.030Z,4.92
2019-01-28T18:50:17.089Z,4.71
2019-01-28T18:52:43.790Z,4.72
2019-01-28T18:55:13.401Z,4.73
2019-01-28T18:57:39.747Z,4.69
2019-01-28T19:00:13.265Z,4.60
2019-01-28T19:02:39.699Z,4.54
2019-01-28T19:05:09.556Z,4.51
2019-01-28T19:07:37.811Z,4.48
2019-01-28T19:10:07.630Z,4.43
2019-01-28T19:12:35.890Z,4.42
2019-01-28T19:15:06.173Z,4.49
2019-01-28T19:17:34.458Z,4.46
2019-01-28T19:20:11.846Z,4.43
2019-01-28T19:26:12.711Z,4.20
2019-01-28T19:28:39.006Z,4.15
2019-01-28T19:31:05.454Z,4.15
2019-01-28T19:33:31.905Z,4.22
2019-01-28T19:38:57.981Z,4.06
2019-01-28T19:44:35.838Z,3.91
2019-01-28T19:50:26.936Z,3.89
2019-01-28T19:52:53.635Z,3.83
2019-01-28T19:55:22.018Z,3.80
2019-01-28T19:57:48.489Z,3.99
2019-01-28T20:00:23.374Z,3.97
2019-01-28T20:06:01.657Z,3.88
2019-01-28T20:08:27.939Z,3.92
2019-01-28T20:10:54.965Z,4.06
2019-01-28T20:13:21.544Z,4.04
2019-01-28T20:15:47.886Z,4.00
2019-01-28T20:18:15.101Z,4.09
2019-01-28T20:20:41.576Z,4.00
2019-01-28T20:23:07.885Z,4.04
2019-01-28T20:25:35.619Z,3.91
2019-01-28T20:28:02.296Z,3.95
2019-01-28T20:30:29.072Z,4.00
2019-01-28T20:32:55.445Z,4.03
2019-01-28T20:35:21.993Z,3.97
2019-01-28T20:41:12.168Z,4.01
2019-01-28T20:47:03.559Z,3.95
2019-01-28T20:52:53.203Z,4.05
2019-01-28T20:55:19.711Z,4.04
2019-01-28T20:57:46.207Z,3.91
2019-01-28T21:00:16.041Z,3.83
2019-01-28T21:02:42.274Z,3.91
2019-01-28T21:08:19.693Z,3.67
2019-01-28T21:14:09.539Z,3.89
2019-01-28T21:16:35.804Z,3.83
2019-01-28T21:19:02.336Z,3.71
2019-01-28T21:24:39.344Z,3.92
2019-01-28T21:27:05.770Z,3.99
2019-01-28T21:29:32.095Z,3.77
2019-01-28T21:31:58.558Z,3.68
2019-01-28T21:38:02.910Z,3.52
2019-01-28T21:40:29.382Z,3.49
2019-01-28T21:42:56.226Z,3.43
2019-01-28T21:45:22.914Z,3.40
2019-01-28T21:47:55.050Z,3.39
2019-01-28T21:50:23.562Z,3.40
2019-01-28T21:52:49.993Z,3.42
2019-01-28T21:55:16.378Z,3.33
2019-01-28T21:57:42.930Z,3.19
2019-01-28T22:03:33.457Z,3.08
2019-01-28T22:05:59.896Z,3.14
2019-01-28T22:08:26.404Z,3.13
2019-01-28T22:10:53.092Z,3.12
2019-01-28T22:13:20.140Z,3.11
2019-01-28T22:15:46.766Z,3.10
2019-01-28T22:18:13.299Z,3.06
2019-01-28T22:20:39.978Z,2.99
2019-01-28T22:23:06.512Z,2.97
2019-01-28T22:25:33.105Z,2.97
2019-01-28T22:27:59.490Z,2.96
2019-01-28T22:30:25.909Z,2.80
2019-01-28T22:32:52.303Z,2.80
2019-01-28T22:35:18.770Z,2.75
2019-01-28T22:37:45.387Z,2.69
2019-01-28T22:40:13.844Z,2.62
2019-01-28T22:42:40.600Z,2.59
2019-01-28T22:45:10.738Z,2.57
2019-01-28T22:47:37.476Z,2.37
2019-01-28T22:50:07.604Z,2.41
2019-01-28T22:55:45.222Z,2.30
2019-01-28T22:58:11.854Z,2.26
2019-01-28T23:00:48.968Z,2.23
2019-01-28T23:03:17.240Z,2.12
2019-01-28T23:05:43.761Z,2.15
2019-01-28T23:08:10.193Z,2.10
2019-01-28T23:10:36.908Z,2.10
2019-01-28T23:13:04.486Z,2.06
2019-01-28T23:15:31.268Z,2.16
2019-01-28T23:18:00.829Z,2.16
2019-01-28T23:20:27.618Z,2.15
2019-01-28T23:22:54.280Z,2.05
2019-01-28T23:25:20.651Z,2.13
2019-01-28T23:27:47.070Z,2.14
2019-01-28T23:30:13.685Z,2.10
2019-01-28T23:32:40.265Z,2.14
2019-01-28T23:35:07.885Z,2.14
2019-01-28T23:37:34.143Z,2.13
2019-01-28T23:40:00.440Z,2.12
2019-01-28T23:42:26.951Z,2.07
2019-01-28T23:44:53.215Z,2.11
2019-01-28T23:47:19.567Z,2.17
2019-01-28T23:49:45.872Z,2.14
2019-01-28T23:52:12.401Z,2.12
2019-01-28T23:54:38.896Z,2.15
2019-01-28T23:57:05.312Z,2.15
2019-01-28T23:59:31.616Z,2.03
